Pagrindinis puslapis
METAR-TAF:

METAR-TAF

Oro uostai :

Viterbo oro uostas

Viterbas, Italija

platuma: 42-26N, ilguma: 012-03E, Aukštis: 300 m

Dabartinis oras

Ataskaita buvo paskelbta 1 valandą ir 8 minutes, ne 16:55 UTC
Vėjas 9 kt iš Šiaurės/Šiaurės Rytų
Temperatūra 12°C
Drėgmė 38%
Slėgis 1026 hPa
Matomumas 10 km arba daugiau
nėra debesų žemiau 1500 m ir nėra kamuolinių lietaus debesų

METAR: LIRV 281655Z 02009KT CAVOK 12/M02 Q1026 RMK SKC MON E SE LIB NC VIS MIN 9999 WIND THR04 /////KT BLU

Laikas: 19:03 (18:03 UTC)

Prognozė

Ataskaita buvo paskelbta 4 valandos ir 3 minutes, ne 14:00 UTC
Prognozė galioja nuo 28 metu 15 UTC su 28 metu 24 UTC
Vėjas 10 kt iš Šiaurės/Šiaurės Rytų
Matomumas 10 km arba daugiau
nėra debesų žemiau 1500 m ir nėra kamuolinių lietaus debesų

TAF: LIRV 281400Z 2815/2824 02010KT CAVOK

Orai ataskaitas ir orų prognozės (METAR, TAF).

turimą stotys yra geltonos ir raudonos taškus žemėlapyje.

Perkelti pele per norėdami pamatyti stoties vardą.

Tada spustelėkite, norėdami matyti oro stebėjimo ir prognozės.

Norėdami pakeisti žemėlapį: spustelėkite ant žalios mygtukų su juodo kryžiaus žemyn,; žalią mygtuką su brūkšneliu, jei norite nutolinti; arba žalių rodyklių gretimoms žemėlapius.


METAR-TAF: